Time;durP1;ratioP1;P1;durP2;ratioP2;P2;SDS_P1;SDS_P2;PMS_P1;PMS_P2;Temp;Humidity;BMP_temperature;BMP_pressure;BME280_temperature;BME280_humidity;BME280_pressure;Samples;Min_cycle;Max_cycle;Signal;HPM_P1;HPM_P2
2021/01/27 00:00:27;;;;;;;169.80;23.77;;;;;;;;;;5074359;28;20016;-45
2021/01/27 00:02:54;;;;;;;184.05;23.42;;;;;;;;;;5072230;28;20025;-47
2021/01/27 00:05:24;;;;;;;187.32;23.42;;;;;;;;;;5073506;28;20020;-47
2021/01/27 00:07:51;;;;;;;182.25;25.05;;;;;;;;;;5074282;28;20032;-47
2021/01/27 00:10:19;;;;;;;148.55;18.75;;;;;;;;;;5073747;28;20487;-46
2021/01/27 00:12:46;;;;;;;168.32;20.60;;;;;;;;;;5073119;28;20047;-47
2021/01/27 00:15:14;;;;;;;238.13;26.75;;;;;;;;;;5074081;28;20021;-43
2021/01/27 00:17:41;;;;;;;150.88;19.10;;;;;;;;;;5073946;28;20012;-45
2021/01/27 00:20:10;;;;;;;184.77;21.33;;;;;;;;;;5073999;28;20055;-45
2021/01/27 00:22:37;;;;;;;177.32;20.48;;;;;;;;;;5072165;28;20060;-48
2021/01/27 00:25:05;;;;;;;148.77;17.58;;;;;;;;;;5056741;28;20017;-49
2021/01/27 00:27:32;;;;;;;94.30;16.13;;;;;;;;;;5073670;28;20476;-43
2021/01/27 00:29:59;;;;;;;85.30;14.98;;;;;;;;;;5073910;28;20023;-47
2021/01/27 00:32:28;;;;;;;95.63;17.70;;;;;;;;;;5071632;28;20034;-44
2021/01/27 00:34:55;;;;;;;143.90;22.20;;;;;;;;;;5053349;28;20468;-43
2021/01/27 00:37:23;;;;;;;211.52;27.13;;;;;;;;;;5056904;28;20043;-46
2021/01/27 00:39:50;;;;;;;309.25;34.58;;;;;;;;;;5073285;28;20031;-43
2021/01/27 00:42:17;;;;;;;296.20;33.05;;;;;;;;;;5073427;28;20020;-45
2021/01/27 00:44:44;;;;;;;293.90;32.50;;;;;;;;;;5072827;28;20127;-44
2021/01/27 00:47:11;;;;;;;254.65;30.92;;;;;;;;;;5073334;28;20111;-45
2021/01/27 00:49:39;;;;;;;202.73;26.95;;;;;;;;;;5073229;28;20028;-45
2021/01/27 00:52:06;;;;;;;253.32;29.40;;;;;;;;;;5073171;28;20020;-45
2021/01/27 00:54:33;;;;;;;360.10;36.90;;;;;;;;;;5072622;28;20120;-45
2021/01/27 00:57:00;;;;;;;247.10;29.80;;;;;;;;;;5072509;28;20043;-46
2021/01/27 00:59:27;;;;;;;354.88;35.67;;;;;;;;;;5072819;28;20024;-44
2021/01/27 01:01:55;;;;;;;423.35;41.00;;;;;;;;;;5072811;28;20095;-45
2021/01/27 01:04:21;;;;;;;418.80;41.45;;;;;;;;;;5050371;28;20020;-43
2021/01/27 01:06:48;;;;;;;367.75;36.33;;;;;;;;;;5066683;28;20490;-45
2021/01/27 01:09:15;;;;;;;298.92;31.88;;;;;;;;;;5042734;28;20029;-45
2021/01/27 01:11:43;;;;;;;517.65;50.55;;;;;;;;;;5069996;28;20036;-42
2021/01/27 01:14:10;;;;;;;282.52;31.70;;;;;;;;;;5069922;28;20416;-48
2021/01/27 01:16:38;;;;;;;235.38;24.83;;;;;;;;;;5072083;28;20021;-49
2021/01/27 01:19:07;;;;;;;234.73;25.15;;;;;;;;;;5072064;28;20028;-46
2021/01/27 01:21:34;;;;;;;220.55;25.40;;;;;;;;;;5037072;28;20025;-46
2021/01/27 01:24:01;;;;;;;468.88;42.20;;;;;;;;;;5071722;28;20024;-45
2021/01/27 01:26:28;;;;;;;264.35;28.77;;;;;;;;;;5071574;28;20067;-44
2021/01/27 01:28:55;;;;;;;186.63;23.25;;;;;;;;;;5069460;28;20033;-44
2021/01/27 01:31:22;;;;;;;196.40;21.05;;;;;;;;;;5071750;28;20017;-42
2021/01/27 01:33:49;;;;;;;141.63;18.13;;;;;;;;;;5071444;28;20119;-42
2021/01/27 01:36:16;;;;;;;153.85;19.08;;;;;;;;;;5071418;28;20021;-41
2021/01/27 01:38:45;;;;;;;167.48;20.02;;;;;;;;;;5071191;28;20410;-42
2021/01/27 01:41:12;;;;;;;163.60;20.30;;;;;;;;;;5071515;28;20017;-43
2021/01/27 01:43:40;;;;;;;247.90;27.67;;;;;;;;;;5071108;28;20033;-43
2021/01/27 01:46:13;;;;;;;125.18;19.85;;;;;;;;;;5071321;28;20055;-42
2021/01/27 01:48:40;;;;;;;288.45;30.13;;;;;;;;;;5072101;28;20033;-42
2021/01/27 01:51:12;;;;;;;320.60;31.15;;;;;;;;;;5071899;28;20043;-42
2021/01/27 01:53:40;;;;;;;211.95;23.80;;;;;;;;;;5071792;28;20042;-44
2021/01/27 01:56:09;;;;;;;201.25;21.70;;;;;;;;;;5053508;28;20388;-43
2021/01/27 01:58:36;;;;;;;169.65;20.15;;;;;;;;;;5072458;28;20387;-43
2021/01/27 02:01:03;;;;;;;183.27;21.10;;;;;;;;;;5072319;28;20024;-42
2021/01/27 02:03:32;;;;;;;183.38;21.80;;;;;;;;;;5072012;28;20063;-42
2021/01/27 02:06:01;;;;;;;178.55;21.55;;;;;;;;;;5071660;28;20032;-42
2021/01/27 02:08:29;;;;;;;173.68;19.95;;;;;;;;;;5069798;28;20029;-43
2021/01/27 02:10:56;;;;;;;177.77;21.70;;;;;;;;;;5072276;28;20017;-42
2021/01/27 02:13:38;;;;;;;154.30;20.10;;;;;;;;;;5072470;28;20036;-43
2021/01/27 02:16:05;;;;;;;122.18;16.17;;;;;;;;;;5071952;28;20031;-43
2021/01/27 02:18:41;;;;;;;128.80;17.13;;;;;;;;;;5072211;28;20074;-42
2021/01/27 02:21:14;;;;;;;191.15;18.55;;;;;;;;;;5072183;28;20025;-43
2021/01/27 02:23:56;;;;;;;148.02;17.45;;;;;;;;;;5071046;28;20074;-42
2021/01/27 02:26:23;;;;;;;143.70;19.90;;;;;;;;;;5072193;28;20031;-44
2021/01/27 02:29:08;;;;;;;192.27;21.48;;;;;;;;;;5071754;28;20032;-43
2021/01/27 02:31:40;;;;;;;166.43;20.27;;;;;;;;;;5071408;28;20126;-44
2021/01/27 02:34:18;;;;;;;162.27;19.52;;;;;;;;;;5071812;28;20408;-44
2021/01/27 02:36:59;;;;;;;207.20;22.05;;;;;;;;;;5071330;28;20027;-45
2021/01/27 02:39:32;;;;;;;84.43;14.15;;;;;;;;;;5071231;28;20412;-44
2021/01/27 02:42:08;;;;;;;88.07;14.27;;;;;;;;;;5071484;28;20373;-44
2021/01/27 02:44:49;;;;;;;61.03;11.75;;;;;;;;;;5071393;28;20480;-44
2021/01/27 02:47:25;;;;;;;69.55;12.45;;;;;;;;;;5071700;28;20040;-42
2021/01/27 02:49:59;;;;;;;66.18;13.88;;;;;;;;;;5061974;28;20097;-46
2021/01/27 02:52:29;;;;;;;72.28;13.20;;;;;;;;;;5074397;28;20021;-47
2021/01/27 02:55:05;;;;;;;71.25;12.30;;;;;;;;;;5059817;28;20029;-43
2021/01/27 02:57:47;;;;;;;83.45;13.30;;;;;;;;;;5059050;28;20021;-43
2021/01/27 03:00:20;;;;;;;74.57;12.63;;;;;;;;;;5064529;28;20028;-43
2021/01/27 03:02:51;;;;;;;59.17;11.75;;;;;;;;;;5041097;28;20040;-41
2021/01/27 03:05:38;;;;;;;51.42;11.27;;;;;;;;;;5051477;28;20357;-41
2021/01/27 03:08:10;;;;;;;120.60;16.55;;;;;;;;;;5054043;28;20037;-41
2021/01/27 03:10:55;;;;;;;139.97;20.53;;;;;;;;;;5053415;28;20485;-41
2021/01/27 03:13:23;;;;;;;132.85;18.33;;;;;;;;;;5053124;28;20485;-40
2021/01/27 03:15:50;;;;;;;96.75;15.30;;;;;;;;;;5039366;28;20384;-41
2021/01/27 03:18:23;;;;;;;110.95;15.73;;;;;;;;;;5051916;28;20043;-40
2021/01/27 03:20:57;;;;;;;90.35;15.05;;;;;;;;;;5054411;28;20028;-40
2021/01/27 03:23:32;;;;;;;75.20;13.27;;;;;;;;;;5053468;28;20103;-40
2021/01/27 03:26:04;;;;;;;63.47;12.60;;;;;;;;;;5054035;28;20021;-40
2021/01/27 03:28:31;;;;;;;;;;;;;;;;;;5038328;28;20053;-40
2021/01/27 03:30:58;;;;;;;45.80;9.57;;;;;;;;;;5056132;28;19909;-40
2021/01/27 03:33:31;;;;;;;41.47;9.48;;;;;;;;;;5055025;28;20068;-40
2021/01/27 03:35:59;;;;;;;47.80;9.20;;;;;;;;;;5057705;28;20021;-40
2021/01/27 03:38:35;;;;;;;59.80;9.50;;;;;;;;;;5056678;28;20037;-40
2021/01/27 03:41:18;;;;;;;61.95;9.48;;;;;;;;;;5058696;28;20024;-40
2021/01/27 03:43:44;;;;;;;;;;;;;;;;;;5058329;28;20550;-40
2021/01/27 03:46:18;;;;;;;73.75;10.07;;;;;;;;;;5056350;28;20383;-40
2021/01/27 03:49:20;;;;;;;64.65;10.25;;;;;;;;;;5054921;28;20017;-40
2021/01/27 03:51:52;;;;;;;49.70;9.27;;;;;;;;;;4987476;28;20118;-40
2021/01/27 03:54:21;;;;;;;45.08;9.55;;;;;;;;;;5047897;28;20037;-41
2021/01/27 03:56:53;;;;;;;43.40;7.80;;;;;;;;;;5055956;28;20021;-40
2021/01/27 03:59:20;;;;;;;45.60;8.60;;;;;;;;;;5057307;28;20028;-40
2021/01/27 04:01:51;;;;;;;71.78;11.32;;;;;;;;;;5056060;28;20092;-40
2021/01/27 04:04:18;;;;;;;73.78;10.13;;;;;;;;;;5042505;28;20035;-41
2021/01/27 04:06:45;;;;;;;71.82;11.00;;;;;;;;;;5040576;28;20066;-40
2021/01/27 04:09:13;;;;;;;66.25;11.48;;;;;;;;;;5054167;28;20392;-40
2021/01/27 04:11:41;;;;;;;62.58;11.10;;;;;;;;;;5054584;28;20017;-40
2021/01/27 04:14:08;;;;;;;61.92;9.30;;;;;;;;;;5052322;28;20041;-40
2021/01/27 04:16:36;;;;;;;60.80;9.60;;;;;;;;;;5054218;28;20025;-40
2021/01/27 04:19:04;;;;;;;54.45;7.78;;;;;;;;;;5053684;28;20028;-40
2021/01/27 04:21:32;;;;;;;31.38;6.43;;;;;;;;;;5055548;28;20099;-40
2021/01/27 04:23:59;;;;;;;28.10;6.13;;;;;;;;;;5053911;28;20087;-40
2021/01/27 04:26:26;;;;;;;21.30;5.90;;;;;;;;;;5055160;28;20469;-40
2021/01/27 04:28:54;;;;;;;37.30;6.13;;;;;;;;;;5055928;28;20025;-40
2021/01/27 04:31:21;;;;;;;29.50;5.25;;;;;;;;;;5053901;28;20029;-40
2021/01/27 04:33:49;;;;;;;20.00;4.05;;;;;;;;;;5053955;28;20032;-40
2021/01/27 04:36:16;;;;;;;15.98;3.88;;;;;;;;;;5035417;28;20071;-40
2021/01/27 04:38:44;;;;;;;23.40;3.33;;;;;;;;;;5056576;28;20350;-41
2021/01/27 04:41:11;;;;;;;17.58;3.35;;;;;;;;;;5054610;28;20017;-40
2021/01/27 04:43:41;;;;;;;15.15;3.53;;;;;;;;;;5055709;28;20017;-40
2021/01/27 04:46:15;;;;;;;16.83;3.33;;;;;;;;;;5054436;28;20041;-41
2021/01/27 04:48:42;;;;;;;13.07;2.90;;;;;;;;;;5054732;28;20663;-43
2021/01/27 04:51:13;;;;;;;17.00;3.30;;;;;;;;;;5073121;28;20012;-45
2021/01/27 04:53:46;;;;;;;12.60;3.25;;;;;;;;;;5073225;28;20036;-44
2021/01/27 04:56:22;;;;;;;21.05;3.28;;;;;;;;;;5073340;28;20100;-42
2021/01/27 04:58:52;;;;;;;17.92;3.28;;;;;;;;;;5073302;28;20109;-44
2021/01/27 05:01:41;;;;;;;12.93;3.28;;;;;;;;;;5073479;28;20017;-43
2021/01/27 05:04:19;;;;;;;15.00;2.85;;;;;;;;;;5073287;28;20020;-42
2021/01/27 05:06:48;;;;;;;17.02;3.22;;;;;;;;;;5073368;28;20029;-41
2021/01/27 05:09:21;;;;;;;14.40;2.90;;;;;;;;;;5073168;28;20092;-41
2021/01/27 05:11:48;;;;;;;11.07;2.63;;;;;;;;;;5073254;28;20021;-42
2021/01/27 05:14:19;;;;;;;15.52;3.20;;;;;;;;;;5073098;28;20024;-42
2021/01/27 05:16:47;;;;;;;15.27;2.92;;;;;;;;;;5072869;28;20025;-41
2021/01/27 05:19:14;;;;;;;26.92;3.45;;;;;;;;;;5072961;28;20361;-41
2021/01/27 05:21:43;;;;;;;17.77;3.65;;;;;;;;;;5073107;28;20044;-41
2021/01/27 05:24:10;;;;;;;20.88;3.30;;;;;;;;;;5072826;28;20095;-41
2021/01/27 05:26:37;;;;;;;17.08;3.13;;;;;;;;;;5072947;28;20056;-43
2021/01/27 05:29:06;;;;;;;16.77;2.80;;;;;;;;;;5072963;28;20088;-42
2021/01/27 05:31:51;;;;;;;16.02;3.75;;;;;;;;;;5072842;28;20024;-45
2021/01/27 05:34:44;;;;;;;18.13;3.17;;;;;;;;;;5072772;28;20491;-44
2021/01/27 05:37:14;;;;;;;21.17;3.85;;;;;;;;;;5056911;28;20032;-45
2021/01/27 05:39:42;;;;;;;18.35;3.53;;;;;;;;;;5072674;28;20032;-43
2021/01/27 05:42:27;;;;;;;32.72;3.75;;;;;;;;;;5072523;28;20025;-43
2021/01/27 05:44:57;;;;;;;21.15;3.67;;;;;;;;;;5072276;28;20053;-41
2021/01/27 05:47:35;;;;;;;18.88;3.42;;;;;;;;;;5054728;28;20032;-43
2021/01/27 05:50:21;;;;;;;16.58;2.95;;;;;;;;;;5072305;28;20096;-43
2021/01/27 05:52:48;;;;;;;17.67;3.22;;;;;;;;;;5072517;28;20123;-43
2021/01/27 05:55:15;;;;;;;14.05;3.47;;;;;;;;;;5059476;28;20021;-42
2021/01/27 05:57:42;;;;;;;15.88;3.13;;;;;;;;;;5063319;28;20032;-41
2021/01/27 06:00:12;;;;;;;11.77;2.78;;;;;;;;;;5072525;28;20017;-42
2021/01/27 06:02:43;;;;;;;19.50;3.20;;;;;;;;;;5057189;28;20017;-44
2021/01/27 06:05:30;;;;;;;21.60;3.95;;;;;;;;;;5051987;28;20056;-42
2021/01/27 06:08:08;;;;;;;22.25;3.35;;;;;;;;;;5052316;28;20029;-43
2021/01/27 06:10:35;;;;;;;21.25;3.22;;;;;;;;;;5052349;28;20377;-43
2021/01/27 06:13:18;;;;;;;19.80;3.42;;;;;;;;;;5064257;28;20387;-42
2021/01/27 06:15:45;;;;;;;19.58;3.53;;;;;;;;;;5072233;28;20078;-42
2021/01/27 06:18:29;;;;;;;19.25;3.90;;;;;;;;;;5054116;28;20055;-45
2021/01/27 06:21:08;;;;;;;20.92;3.30;;;;;;;;;;5072228;28;20025;-43
2021/01/27 06:23:41;;;;;;;13.63;3.10;;;;;;;;;;5072296;28;20029;-41
2021/01/27 06:26:40;;;;;;;26.80;3.88;;;;;;;;;;5071993;28;20024;-41
2021/01/27 06:29:26;;;;;;;22.17;3.13;;;;;;;;;;5028187;28;20036;-44
2021/01/27 06:31:53;;;;;;;24.92;3.78;;;;;;;;;;5054697;28;20112;-43
2021/01/27 06:34:43;;;;;;;20.52;3.58;;;;;;;;;;5051945;28;20036;-43
2021/01/27 06:37:10;;;;;;;29.42;4.03;;;;;;;;;;5051879;28;20082;-43
2021/01/27 06:39:49;;;;;;;17.15;3.47;;;;;;;;;;5052201;28;20025;-44
2021/01/27 06:42:28;;;;;;;28.17;4.00;;;;;;;;;;5052158;28;20025;-46
2021/01/27 06:45:01;;;;;;;19.05;3.90;;;;;;;;;;5051673;28;20477;-41
2021/01/27 06:47:39;;;;;;;22.60;3.65;;;;;;;;;;5051879;28;20040;-42
2021/01/27 06:50:20;;;;;;;21.63;3.88;;;;;;;;;;5051872;28;20052;-43
2021/01/27 06:53:01;;;;;;;18.95;3.70;;;;;;;;;;5051838;28;20036;-43
2021/01/27 06:55:48;;;;;;;21.80;3.92;;;;;;;;;;5051694;28;20025;-41
2021/01/27 06:58:21;;;;;;;13.98;2.85;;;;;;;;;;5011471;28;20037;-42
2021/01/27 07:01:17;;;;;;;23.95;3.63;;;;;;;;;;5051906;28;20044;-41
2021/01/27 07:04:13;;;;;;;23.58;3.80;;;;;;;;;;5055491;28;20082;-42
2021/01/27 07:06:40;;;;;;;15.23;3.10;;;;;;;;;;5038911;28;20166;-42
2021/01/27 07:09:29;;;;;;;20.23;3.95;;;;;;;;;;5055573;28;20025;-43
2021/01/27 07:12:05;;;;;;;16.83;3.22;;;;;;;;;;5055568;28;20025;-43
2021/01/27 07:14:32;;;;;;;19.65;3.47;;;;;;;;;;5055371;28;20029;-44
2021/01/27 07:17:06;;;;;;;18.13;3.00;;;;;;;;;;5055468;28;20028;-42
2021/01/27 07:19:33;;;;;;;20.02;3.58;;;;;;;;;;5055309;28;20020;-42
2021/01/27 07:22:00;;;;;;;26.13;4.18;;;;;;;;;;5055268;28;20381;-44
2021/01/27 07:24:26;;;;;;;19.60;3.72;;;;;;;;;;5055387;28;20088;-41
2021/01/27 07:26:56;;;;;;;22.17;3.80;;;;;;;;;;5055179;28;20032;-41
2021/01/27 07:29:26;;;;;;;18.00;3.83;;;;;;;;;;5055014;28;20032;-45
2021/01/27 07:31:54;;;;;;;25.83;4.30;;;;;;;;;;5055195;28;20043;-43
2021/01/27 07:34:29;;;;;;;19.48;3.17;;;;;;;;;;5054820;28;20401;-42
2021/01/27 07:37:01;;;;;;;23.58;3.90;;;;;;;;;;5055029;28;20014;-42
2021/01/27 07:39:48;;;;;;;20.25;4.22;;;;;;;;;;5054834;28;20366;-42
2021/01/27 07:42:21;;;;;;;18.17;3.47;;;;;;;;;;5054898;28;20469;-42
2021/01/27 07:44:47;;;;;;;;;;;;;;;;;;5055211;28;20469;-42
2021/01/27 07:47:36;;;;;;;14.25;3.40;;;;;;;;;;5037042;28;19921;-43
2021/01/27 07:50:04;;;;;;;24.75;3.92;;;;;;;;;;5054704;28;20028;-41
2021/01/27 07:52:36;;;;;;;23.13;3.65;;;;;;;;;;5054559;28;20688;-41
2021/01/27 07:55:14;;;;;;;13.98;3.15;;;;;;;;;;5053380;28;20119;-43
2021/01/27 07:57:44;;;;;;;18.60;3.95;;;;;;;;;;5054433;28;20029;-41
2021/01/27 08:00:12;;;;;;;20.77;3.45;;;;;;;;;;5053403;28;20079;-42
2021/01/27 08:02:48;;;;;;;22.98;3.63;;;;;;;;;;5054155;28;20580;-42
2021/01/27 08:05:16;;;;;;;17.75;3.00;;;;;;;;;;5054581;28;20029;-43
2021/01/27 08:07:46;;;;;;;16.92;3.30;;;;;;;;;;5054586;28;20018;-42
2021/01/27 08:10:33;;;;;;;18.40;3.92;;;;;;;;;;5054503;28;20504;-41
2021/01/27 08:13:05;;;;;;;20.98;3.50;;;;;;;;;;5053938;28;20029;-41
2021/01/27 08:15:32;;;;;;;21.33;3.55;;;;;;;;;;5054130;28;20025;-42
2021/01/27 08:18:19;;;;;;;12.82;3.08;;;;;;;;;;5054222;28;20538;-41
2021/01/27 08:20:47;;;;;;;21.77;3.47;;;;;;;;;;5054260;28;20033;-41
2021/01/27 08:23:23;;;;;;;15.15;3.17;;;;;;;;;;5054297;28;20021;-43
2021/01/27 08:25:50;;;;;;;17.90;3.10;;;;;;;;;;5053913;28;20472;-43
2021/01/27 08:28:36;;;;;;;15.55;3.53;;;;;;;;;;5052752;28;20068;-41
2021/01/27 08:31:09;;;;;;;19.83;3.47;;;;;;;;;;5053850;28;20505;-41
2021/01/27 08:33:50;;;;;;;14.25;3.40;;;;;;;;;;5053839;28;20040;-41
2021/01/27 08:36:35;;;;;;;16.38;3.75;;;;;;;;;;5053912;28;20033;-42
2021/01/27 08:39:07;;;;;;;22.80;3.80;;;;;;;;;;5053827;28;20029;-41
2021/01/27 08:41:50;;;;;;;20.65;3.20;;;;;;;;;;5053817;28;20036;-42
2021/01/27 08:44:20;;;;;;;21.25;3.45;;;;;;;;;;5053707;28;20022;-42
2021/01/27 08:47:00;;;;;;;21.23;3.45;;;;;;;;;;5053183;28;20145;-41
2021/01/27 08:49:42;;;;;;;23.30;3.45;;;;;;;;;;5053651;28;20032;-41
2021/01/27 08:52:12;;;;;;;15.05;3.20;;;;;;;;;;5053922;28;20370;-41
2021/01/27 08:54:39;;;;;;;19.58;3.35;;;;;;;;;;5053428;28;20040;-41
2021/01/27 08:57:18;;;;;;;20.95;3.10;;;;;;;;;;5053615;28;20075;-42
2021/01/27 09:00:04;;;;;;;19.50;3.15;;;;;;;;;;5053478;28;20029;-42
2021/01/27 09:02:40;;;;;;;19.95;3.90;;;;;;;;;;5053570;28;20017;-43
2021/01/27 09:05:12;;;;;;;52.45;6.00;;;;;;;;;;5053305;28;20013;-44
2021/01/27 09:07:49;;;;;;;37.80;4.53;;;;;;;;;;5053315;28;20025;-42
2021/01/27 09:10:16;;;;;;;23.42;3.80;;;;;;;;;;5053097;28;20032;-41
2021/01/27 09:12:46;;;;;;;22.15;3.90;;;;;;;;;;5053161;28;20029;-41
2021/01/27 09:15:22;;;;;;;20.55;3.33;;;;;;;;;;5053208;28;20029;-41
2021/01/27 09:17:49;;;;;;;20.83;3.25;;;;;;;;;;5052955;28;20033;-41
2021/01/27 09:20:20;;;;;;;15.13;3.50;;;;;;;;;;5053114;28;20499;-41
2021/01/27 09:22:47;;;;;;;22.85;4.93;;;;;;;;;;5052963;28;20037;-41
2021/01/27 09:25:15;;;;;;;39.47;4.80;;;;;;;;;;5052077;28;20040;-41
2021/01/27 09:27:42;;;;;;;29.92;4.88;;;;;;;;;;5052845;28;20089;-42
2021/01/27 09:30:10;;;;;;;27.10;4.80;;;;;;;;;;5052980;28;20013;-41
2021/01/27 09:32:38;;;;;;;29.85;5.40;;;;;;;;;;5052505;28;20028;-41
2021/01/27 09:35:09;;;;;;;53.63;7.50;;;;;;;;;;5052436;28;20037;-43
2021/01/27 09:37:38;;;;;;;66.47;9.30;;;;;;;;;;5052754;28;20017;-43
2021/01/27 09:40:11;;;;;;;77.68;8.93;;;;;;;;;;5051445;28;20024;-41
2021/01/27 09:42:37;;;;;;;;;;;;;;;;;;5053101;28;20074;-41
2021/01/27 09:45:06;;;;;;;61.78;9.43;;;;;;;;;;5052389;28;19917;-41
2021/01/27 09:47:35;;;;;;;34.45;7.93;;;;;;;;;;5052809;28;20542;-41
2021/01/27 09:50:02;;;;;;;51.25;8.18;;;;;;;;;;5052175;28;20060;-41
2021/01/27 09:52:31;;;;;;;45.10;8.55;;;;;;;;;;5052436;28;20532;-40
2021/01/27 09:55:15;;;;;;;47.50;8.05;;;;;;;;;;5052815;28;20037;-42
2021/01/27 09:57:43;;;;;;;39.70;7.55;;;;;;;;;;5057303;28;20507;-41
2021/01/27 10:00:23;;;;;;;38.33;7.50;;;;;;;;;;5072514;28;20614;-41
2021/01/27 10:02:50;;;;;;;44.13;7.85;;;;;;;;;;5050907;28;20021;-41
2021/01/27 10:05:37;;;;;;;42.30;7.20;;;;;;;;;;5052310;28;20033;-41
2021/01/27 10:08:13;;;;;;;49.97;7.38;;;;;;;;;;5052099;28;20104;-41
2021/01/27 10:10:40;;;;;;;38.65;7.07;;;;;;;;;;5052100;28;20025;-40
2021/01/27 10:13:08;;;;;;;40.15;7.25;;;;;;;;;;5058705;28;20032;-43
2021/01/27 10:15:35;;;;;;;51.08;7.50;;;;;;;;;;5072240;28;20021;-43
2021/01/27 10:18:05;;;;;;;49.15;8.13;;;;;;;;;;5054154;28;20039;-42
2021/01/27 10:20:33;;;;;;;44.42;7.45;;;;;;;;;;5072458;28;20016;-42
2021/01/27 10:23:07;;;;;;;43.97;8.00;;;;;;;;;;5056889;28;20032;-44
2021/01/27 10:25:39;;;;;;;27.13;6.63;;;;;;;;;;5052114;28;20028;-42
2021/01/27 10:28:13;;;;;;;34.72;6.70;;;;;;;;;;5053173;28;20499;-42
2021/01/27 10:30:40;;;;;;;27.95;5.90;;;;;;;;;;5072168;28;20082;-41
2021/01/27 10:33:27;;;;;;;35.35;6.35;;;;;;;;;;5050597;28;20490;-43
2021/01/27 10:35:54;;;;;;;61.90;8.05;;;;;;;;;;5059686;28;20547;-41
2021/01/27 10:38:23;;;;;;;43.22;7.15;;;;;;;;;;5075843;28;20017;-41
2021/01/27 10:41:07;;;;;;;30.52;6.47;;;;;;;;;;5075538;28;20074;-41
2021/01/27 10:43:34;;;;;;;85.70;10.32;;;;;;;;;;5071849;28;20021;-44
2021/01/27 10:46:01;;;;;;;60.03;7.63;;;;;;;;;;5075065;28;20091;-43
2021/01/27 10:48:29;;;;;;;52.33;8.02;;;;;;;;;;5074607;28;20479;-51
2021/01/27 10:50:56;;;;;;;60.38;7.82;;;;;;;;;;5074931;28;20029;-42
2021/01/27 10:53:23;;;;;;;51.50;6.78;;;;;;;;;;5075055;28;20040;-43
2021/01/27 10:55:57;;;;;;;36.17;7.22;;;;;;;;;;5075359;28;20055;-43
2021/01/27 10:58:24;;;;;;;54.10;7.30;;;;;;;;;;5075439;28;20024;-45
2021/01/27 11:00:52;;;;;;;62.25;7.78;;;;;;;;;;5075562;28;20020;-42
2021/01/27 11:03:19;;;;;;;59.10;8.13;;;;;;;;;;5057207;28;20384;-41
2021/01/27 11:05:46;;;;;;;66.18;7.68;;;;;;;;;;5075248;28;20020;-41
2021/01/27 11:08:15;;;;;;;61.63;7.32;;;;;;;;;;5075371;28;20021;-42
2021/01/27 11:10:42;;;;;;;73.97;7.90;;;;;;;;;;5075322;28;20024;-43
2021/01/27 11:13:10;;;;;;;41.28;5.53;;;;;;;;;;5074595;28;20078;-43
2021/01/27 11:15:37;;;;;;;37.72;4.28;;;;;;;;;;5075216;28;20037;-42
2021/01/27 11:18:04;;;;;;;28.88;3.92;;;;;;;;;;5075006;28;20043;-44
2021/01/27 11:20:31;;;;;;;74.32;7.05;;;;;;;;;;5075161;28;20490;-41
2021/01/27 11:22:58;;;;;;;40.95;4.78;;;;;;;;;;5075408;28;20024;-44
2021/01/27 11:25:27;;;;;;;31.75;3.78;;;;;;;;;;5075359;28;20031;-41
2021/01/27 11:27:54;;;;;;;29.42;4.15;;;;;;;;;;5075206;28;20044;-42
2021/01/27 11:30:23;;;;;;;29.15;4.00;;;;;;;;;;5057224;28;20384;-42
2021/01/27 11:32:50;;;;;;;31.52;3.60;;;;;;;;;;5074816;28;20052;-42
2021/01/27 11:35:17;;;;;;;29.27;2.92;;;;;;;;;;5074988;28;20082;-43
2021/01/27 11:37:45;;;;;;;26.92;3.80;;;;;;;;;;5074885;28;20472;-42
2021/01/27 11:40:12;;;;;;;30.55;4.80;;;;;;;;;;5069053;28;20025;-44
2021/01/27 11:42:39;;;;;;;48.42;4.90;;;;;;;;;;5054901;28;20032;-42
2021/01/27 11:45:07;;;;;;;23.65;4.30;;;;;;;;;;5056368;28;20045;-43
2021/01/27 11:47:35;;;;;;;43.70;4.88;;;;;;;;;;5062057;28;20028;-43
2021/01/27 11:50:02;;;;;;;36.45;5.40;;;;;;;;;;5054852;28;20029;-43
2021/01/27 11:52:29;;;;;;;38.08;5.55;;;;;;;;;;5054711;28;20025;-43
2021/01/27 11:54:56;;;;;;;34.05;5.15;;;;;;;;;;5054751;28;20068;-41
2021/01/27 11:57:23;;;;;;;25.98;5.07;;;;;;;;;;5069623;28;20484;-41
2021/01/27 11:59:50;;;;;;;28.33;5.65;;;;;;;;;;5074689;28;20096;-41
2021/01/27 12:02:17;;;;;;;47.42;6.63;;;;;;;;;;5074412;28;20032;-41
2021/01/27 12:04:44;;;;;;;32.35;5.10;;;;;;;;;;5074423;28;20025;-41
2021/01/27 12:07:11;;;;;;;56.70;6.72;;;;;;;;;;5074473;28;20032;-41
2021/01/27 12:09:38;;;;;;;53.28;5.53;;;;;;;;;;5074415;28;20031;-41
2021/01/27 12:12:06;;;;;;;39.30;7.03;;;;;;;;;;5055438;28;20021;-41
2021/01/27 12:14:33;;;;;;;46.78;6.93;;;;;;;;;;5054169;28;20041;-41
2021/01/27 12:17:00;;;;;;;52.40;7.32;;;;;;;;;;5054209;28;20017;-41
2021/01/27 12:19:27;;;;;;;32.10;6.05;;;;;;;;;;5072072;28;20123;-42
2021/01/27 12:21:55;;;;;;;32.67;6.75;;;;;;;;;;5071028;28;20046;-45
2021/01/27 12:24:23;;;;;;;47.75;7.22;;;;;;;;;;5075038;28;20036;-44
2021/01/27 12:26:50;;;;;;;32.30;6.00;;;;;;;;;;5073561;28;20070;-42
2021/01/27 12:29:17;;;;;;;42.72;6.80;;;;;;;;;;5079959;28;20055;-44
2021/01/27 12:31:44;;;;;;;34.35;6.07;;;;;;;;;;5081432;28;20074;-44
2021/01/27 12:34:12;;;;;;;237.43;22.38;;;;;;;;;;5073349;28;20053;-46
2021/01/27 12:36:39;;;;;;;77.85;9.73;;;;;;;;;;5073189;28;20418;-45
2021/01/27 12:39:06;;;;;;;53.15;8.07;;;;;;;;;;5072556;28;20207;-43
2021/01/27 12:41:34;;;;;;;133.93;13.85;;;;;;;;;;5069283;28;20031;-44
2021/01/27 12:44:01;;;;;;;70.22;8.35;;;;;;;;;;5072335;28;20494;-43
2021/01/27 12:46:28;;;;;;;57.33;8.65;;;;;;;;;;5068716;28;20137;-45
2021/01/27 12:48:55;;;;;;;51.60;7.38;;;;;;;;;;5072731;28;20024;-44
2021/01/27 12:51:22;;;;;;;55.50;7.15;;;;;;;;;;5054994;28;20534;-45
2021/01/27 12:53:49;;;;;;;53.10;7.30;;;;;;;;;;5071341;28;20032;-45
2021/01/27 12:56:17;;;;;;;52.13;7.63;;;;;;;;;;5072931;28;20541;-44
2021/01/27 12:58:44;;;;;;;43.85;7.22;;;;;;;;;;5075111;28;20387;-45
2021/01/27 13:01:13;;;;;;;52.05;6.85;;;;;;;;;;5073269;28;20127;-45
2021/01/27 13:03:40;;;;;;;45.13;6.70;;;;;;;;;;5079155;28;20032;-44
2021/01/27 13:06:07;;;;;;;39.92;5.97;;;;;;;;;;5053437;28;20063;-46
2021/01/27 13:08:34;;;;;;;50.10;8.25;;;;;;;;;;5079359;28;20020;-44
2021/01/27 13:11:01;;;;;;;45.85;7.07;;;;;;;;;;5083380;28;20395;-43
2021/01/27 13:13:28;;;;;;;43.13;7.28;;;;;;;;;;5080137;28;20025;-44
2021/01/27 13:15:55;;;;;;;46.50;6.80;;;;;;;;;;5077332;28;20397;-43
2021/01/27 13:18:23;;;;;;;52.35;7.05;;;;;;;;;;5075542;28;20028;-45
2021/01/27 13:20:50;;;;;;;63.53;8.40;;;;;;;;;;5071021;28;20496;-46
2021/01/27 13:23:17;;;;;;;60.85;8.13;;;;;;;;;;5071338;28;20039;-45
2021/01/27 13:25:45;;;;;;;70.68;9.00;;;;;;;;;;5072774;28;20028;-43
2021/01/27 13:28:13;;;;;;;72.93;8.68;;;;;;;;;;5069432;28;20028;-45
2021/01/27 13:30:41;;;;;;;59.55;8.40;;;;;;;;;;5072416;28;20106;-44
2021/01/27 13:33:10;;;;;;;62.20;8.23;;;;;;;;;;5072056;28;20056;-48
2021/01/27 13:35:38;;;;;;;56.10;7.70;;;;;;;;;;5053767;28;20074;-45
2021/01/27 13:38:05;;;;;;;42.47;7.65;;;;;;;;;;5071562;28;20122;-45
2021/01/27 13:40:32;;;;;;;43.60;6.97;;;;;;;;;;5069766;28;20016;-45
2021/01/27 13:43:00;;;;;;;49.78;7.85;;;;;;;;;;5071789;28;20054;-43
2021/01/27 13:45:29;;;;;;;59.50;7.30;;;;;;;;;;5071445;28;20055;-47
2021/01/27 13:47:56;;;;;;;51.80;6.45;;;;;;;;;;5071060;28;20112;-47
2021/01/27 13:50:23;;;;;;;32.70;5.47;;;;;;;;;;5071431;28;20488;-45
2021/01/27 13:52:50;;;;;;;52.38;7.05;;;;;;;;;;5066686;28;20122;-43
2021/01/27 13:55:18;;;;;;;37.13;5.45;;;;;;;;;;5069770;28;20066;-42
2021/01/27 13:57:45;;;;;;;43.72;6.13;;;;;;;;;;5071589;28;20029;-43
2021/01/27 14:00:14;;;;;;;45.72;6.65;;;;;;;;;;5071861;28;20028;-42
2021/01/27 14:02:41;;;;;;;39.08;5.78;;;;;;;;;;5070532;28;20047;-45
2021/01/27 14:05:09;;;;;;;41.83;6.10;;;;;;;;;;5067342;28;20059;-43
2021/01/27 14:07:37;;;;;;;50.42;6.53;;;;;;;;;;5071418;28;20113;-44
2021/01/27 14:10:05;;;;;;;39.90;5.80;;;;;;;;;;5070895;28;20020;-43
2021/01/27 14:12:32;;;;;;;35.25;5.22;;;;;;;;;;5072105;28;20024;-44
2021/01/27 14:14:59;;;;;;;42.45;5.53;;;;;;;;;;5069388;28;20400;-43
2021/01/27 14:17:26;;;;;;;42.53;6.63;;;;;;;;;;5071477;28;20036;-43
2021/01/27 14:19:53;;;;;;;43.35;5.68;;;;;;;;;;5067054;28;20039;-43
2021/01/27 14:22:20;;;;;;;36.47;5.85;;;;;;;;;;5068689;28;20055;-43
2021/01/27 14:24:47;;;;;;;50.35;5.03;;;;;;;;;;5070914;28;20051;-42
2021/01/27 14:27:14;;;;;;;34.83;5.75;;;;;;;;;;5051031;28;20025;-43
2021/01/27 14:29:41;;;;;;;37.13;4.78;;;;;;;;;;5071797;28;20025;-47
2021/01/27 14:32:08;;;;;;;48.03;5.97;;;;;;;;;;5069728;28;20024;-45
2021/01/27 14:34:35;;;;;;;35.25;5.72;;;;;;;;;;5068938;28;20112;-44
2021/01/27 14:37:02;;;;;;;33.03;5.22;;;;;;;;;;5069038;28;20504;-46
2021/01/27 14:39:29;;;;;;;40.08;5.35;;;;;;;;;;5068755;28;20060;-43
2021/01/27 14:41:56;;;;;;;33.45;4.90;;;;;;;;;;5070489;28;20142;-44
2021/01/27 14:44:23;;;;;;;58.25;6.07;;;;;;;;;;5070657;28;20104;-43
2021/01/27 14:46:51;;;;;;;29.35;4.65;;;;;;;;;;5070979;28;20631;-43